Time;durP1;ratioP1;P1;durP2;ratioP2;P2;SDS_P1;SDS_P2;PMS_P1;PMS_P2;Temp;Humidity;BMP_temperature;BMP_pressure;BME280_temperature;BME280_humidity;BME280_pressure;Samples;Min_cycle;Max_cycle;Signal;HPM_P1;HPM_P2
2023/10/19 00:01:47;;;;;;;38.10;26.20;;;10.00;33.00;;;;;;5025572;28;21001;-72
2023/10/19 00:04:14;;;;;;;34.10;26.80;;;10.00;33.10;;;;;;5026599;28;20498;-72
2023/10/19 00:06:40;;;;;;;37.37;26.97;;;10.00;33.30;;;;;;5025037;28;20981;-72
2023/10/19 00:09:11;;;;;;;43.40;31.03;;;10.00;33.20;;;;;;5020554;28;20455;-72
2023/10/19 00:11:40;;;;;;;38.93;30.00;;;10.00;33.40;;;;;;5025471;28;21035;-72
2023/10/19 00:14:15;;;;;;;41.70;28.90;;;10.00;33.30;;;;;;5024126;28;21002;-72
2023/10/19 00:16:44;;;;;;;43.03;31.70;;;10.00;33.50;;;;;;5027131;28;20813;-72
2023/10/19 00:19:11;;;;;;;40.27;31.50;;;10.00;33.50;;;;;;5025998;28;20506;-72
2023/10/19 00:21:50;;;;;;;39.27;30.10;;;10.00;33.50;;;;;;5023903;28;20625;-71
2023/10/19 00:24:18;;;;;;;34.93;27.90;;;10.00;33.50;;;;;;5028628;28;20492;-72
2023/10/19 00:26:45;;;;;;;36.73;29.93;;;10.00;33.40;;;;;;5026866;28;20468;-72
2023/10/19 00:29:30;;;;;;;44.07;30.40;;;10.00;33.50;;;;;;5028011;28;20466;-72
2023/10/19 00:31:56;;;;;;;38.83;30.23;;;10.00;33.50;;;;;;5027373;28;20854;-72
2023/10/19 00:34:23;;;;;;;38.93;28.43;;;10.00;33.40;;;;;;5026485;28;20501;-72
2023/10/19 00:36:51;;;;;;;36.87;28.07;;;10.00;33.50;;;;;;5027209;28;20472;-72
2023/10/19 00:39:20;;;;;;;38.57;28.93;;;10.10;33.70;;;;;;5045280;23;20477;-65
2023/10/19 00:41:48;;;;;;;37.73;27.87;;;10.00;33.30;;;;;;5040282;28;20479;-66
2023/10/19 00:44:22;;;;;;;39.73;29.13;;;10.10;33.40;;;;;;5045261;28;20904;-66
2023/10/19 00:46:55;;;;;;;38.43;27.10;;;10.10;33.40;;;;;;5045067;28;21032;-65
2023/10/19 00:49:23;;;;;;;40.43;28.60;;;10.10;33.40;;;;;;5047324;28;20454;-65
2023/10/19 00:51:56;;;;;;;39.47;29.13;;;10.10;33.50;;;;;;5045520;28;20950;-65
2023/10/19 00:54:31;;;;;;;37.63;28.00;;;10.10;33.70;;;;;;5044765;28;20473;-65
2023/10/19 00:57:03;;;;;;;35.63;28.00;;;10.10;33.70;;;;;;5044498;28;20515;-67
2023/10/19 00:59:35;;;;;;;38.30;27.67;;;10.10;33.80;;;;;;5050296;28;20954;-67
2023/10/19 01:02:16;;;;;;;38.50;29.37;;;10.10;33.80;;;;;;5029673;28;20471;-66
2023/10/19 01:04:44;;;;;;;38.97;28.43;;;10.10;33.70;;;;;;5036720;28;20578;-66
2023/10/19 01:07:15;;;;;;;37.87;29.57;;;10.10;33.90;;;;;;5028917;28;20546;-66
2023/10/19 01:09:44;;;;;;;38.17;29.63;;;10.10;33.80;;;;;;5028421;28;20522;-66
2023/10/19 01:12:25;;;;;;;39.90;29.60;;;10.10;33.90;;;;;;5030113;28;21001;-66
2023/10/19 01:15:09;;;;;;;39.53;30.70;;;10.10;33.90;;;;;;5031967;28;20490;-65
2023/10/19 01:17:39;;;;;;;41.27;31.57;;;10.00;34.30;;;;;;5027847;28;20465;-65
2023/10/19 01:20:17;;;;;;;44.20;30.93;;;10.10;33.80;;;;;;5030346;28;20475;-65
2023/10/19 01:23:05;;;;;;;43.63;32.00;;;10.10;33.80;;;;;;5026884;28;20575;-65
2023/10/19 01:25:34;;;;;;;40.33;30.63;;;10.00;33.90;;;;;;5025280;28;20892;-65
2023/10/19 01:28:07;;;;;;;40.03;30.97;;;10.00;33.70;;;;;;5026634;28;20455;-65
2023/10/19 01:30:34;;;;;;;39.53;30.23;;;10.00;33.80;;;;;;5027588;28;20542;-67
2023/10/19 01:33:01;;;;;;;43.90;32.23;;;10.00;33.70;;;;;;5026559;28;20513;-67
2023/10/19 01:36:24;;;;;;;41.20;32.17;;;10.10;33.50;;;;;;5027807;28;20569;-65
2023/10/19 01:38:16;;;;;;;42.00;30.83;;;10.10;33.50;;;;;;5032429;28;20529;-67
2023/10/19 01:40:46;;;;;;;39.10;30.33;;;10.10;33.50;;;;;;5028333;28;20513;-66
2023/10/19 01:43:19;;;;;;;43.17;30.30;;;10.10;33.40;;;;;;5026068;28;20462;-65
2023/10/19 01:45:46;;;;;;;46.37;38.30;;;10.10;33.30;;;;;;5027824;28;20510;-65
2023/10/19 01:48:12;;;;;;;37.07;28.50;;;10.10;33.60;;;;;;5031614;28;20466;-65
2023/10/19 01:50:40;;;;;;;36.30;27.10;;;10.10;33.30;;;;;;5027040;28;20466;-65
2023/10/19 01:53:12;;;;;;;41.33;30.17;;;10.10;33.50;;;;;;5028494;28;20530;-67
2023/10/19 01:55:40;;;;;;;40.00;30.10;;;10.10;33.50;;;;;;5028246;28;20577;-66
2023/10/19 01:58:08;;;;;;;38.30;28.20;;;10.00;33.50;;;;;;5022382;28;20463;-65
2023/10/19 02:00:37;;;;;;;37.67;29.57;;;10.00;33.40;;;;;;5027580;28;20512;-65
2023/10/19 02:03:07;;;;;;;40.07;28.10;;;10.00;33.70;;;;;;5030649;28;20996;-65
2023/10/19 02:05:39;;;;;;;37.83;30.93;;;10.00;33.80;;;;;;5030755;28;20482;-65
2023/10/19 02:08:07;;;;;;;37.77;29.77;;;10.00;33.80;;;;;;5031791;28;20459;-66
2023/10/19 02:10:34;;;;;;;36.53;28.03;;;10.00;33.90;;;;;;5025628;28;20463;-66
2023/10/19 02:13:06;;;;;;;47.60;30.50;;;10.00;33.70;;;;;;5030855;28;20463;-65
2023/10/19 02:15:35;;;;;;;38.10;28.17;;;10.00;33.80;;;;;;5028421;28;20479;-65
2023/10/19 02:18:02;;;;;;;41.10;30.23;;;10.00;33.60;;;;;;5032056;28;20459;-66
2023/10/19 02:20:29;;;;;;;39.33;29.47;;;10.00;33.60;;;;;;5026820;28;20489;-66
2023/10/19 02:22:57;;;;;;;39.47;28.27;;;10.00;33.60;;;;;;5030248;28;20462;-66
2023/10/19 02:25:28;;;;;;;41.07;31.23;;;10.00;33.60;;;;;;5029567;28;20487;-66
2023/10/19 02:27:53;;;;;;;38.93;28.90;;;10.00;33.60;;;;;;5028783;28;21058;-65
2023/10/19 02:30:24;;;;;;;38.67;28.90;;;10.00;33.70;;;;;;5027035;28;20469;-66
2023/10/19 02:32:50;;;;;;;39.00;28.80;;;10.00;33.80;;;;;;5027684;28;20204;-65
2023/10/19 02:35:18;;;;;;;42.10;30.07;;;10.00;33.80;;;;;;5032391;28;20489;-65
2023/10/19 02:37:44;;;;;;;40.57;29.83;;;10.00;33.70;;;;;;5029700;28;20461;-65
2023/10/19 02:40:19;;;;;;;40.43;27.50;;;10.10;33.60;;;;;;5026849;28;20467;-65
2023/10/19 02:42:47;;;;;;;41.47;28.93;;;10.10;33.20;;;;;;5026567;28;20222;-65
2023/10/19 02:45:15;;;;;;;35.80;27.40;;;10.10;33.40;;;;;;5027507;28;20489;-65
2023/10/19 02:47:45;;;;;;;34.40;26.83;;;10.10;33.40;;;;;;5028880;28;20987;-66
2023/10/19 02:50:13;;;;;;;40.07;28.40;;;10.10;33.50;;;;;;5028630;28;20940;-65
2023/10/19 02:52:40;;;;;;;34.80;27.40;;;10.10;33.40;;;;;;5024389;28;21495;-65
2023/10/19 02:55:09;;;;;;;36.10;26.57;;;10.10;33.50;;;;;;5026448;28;20574;-67
2023/10/19 02:57:35;;;;;;;36.70;28.47;;;10.10;33.70;;;;;;5026869;28;20568;-66
2023/10/19 03:00:08;;;;;;;37.87;28.77;;;10.10;33.70;;;;;;5027996;28;20955;-66
2023/10/19 03:02:36;;;;;;;36.10;27.70;;;10.10;33.80;;;;;;5026015;28;20282;-67
2023/10/19 03:05:12;;;;;;;33.63;26.63;;;10.10;33.60;;;;;;5025628;28;20479;-66
2023/10/19 03:07:38;;;;;;;33.80;26.90;;;10.10;33.60;;;;;;5019903;28;20557;-67
2023/10/19 03:10:07;;;;;;;34.27;26.97;;;10.00;33.90;;;;;;5024364;28;20605;-67
2023/10/19 03:12:33;;;;;;;38.20;26.97;;;10.00;34.00;;;;;;5025590;28;20469;-66
2023/10/19 03:15:00;;;;;;;38.40;28.00;;;9.90;34.10;;;;;;5024137;28;20479;-65
2023/10/19 03:17:28;;;;;;;40.10;28.40;;;9.90;34.10;;;;;;5028700;28;20548;-66
2023/10/19 03:19:55;;;;;;;37.37;28.30;;;9.90;33.90;;;;;;5025132;28;20856;-66
2023/10/19 03:22:22;;;;;;;40.40;28.73;;;9.80;34.00;;;;;;5024076;28;20479;-68
2023/10/19 03:24:58;;;;;;;34.57;25.40;;;9.80;34.00;;;;;;5020150;28;20545;-67
2023/10/19 03:27:24;;;;;;;33.13;26.03;;;9.80;33.90;;;;;;5028863;28;20472;-67
2023/10/19 03:29:54;;;;;;;36.10;26.73;;;9.80;33.90;;;;;;5026005;28;20450;-67
2023/10/19 03:32:26;;;;;;;37.13;28.03;;;9.70;34.00;;;;;;5021328;28;20231;-67
2023/10/19 03:34:55;;;;;;;38.00;27.40;;;9.70;33.90;;;;;;5021473;28;20482;-67
2023/10/19 03:37:25;;;;;;;40.87;27.80;;;9.60;33.80;;;;;;5023913;28;20467;-67
2023/10/19 03:39:55;;;;;;;37.60;26.67;;;9.60;33.80;;;;;;5027377;28;20469;-67
2023/10/19 03:42:25;;;;;;;34.67;26.43;;;9.60;33.80;;;;;;5026931;28;21002;-67
2023/10/19 03:44:53;;;;;;;38.17;27.07;;;9.60;33.90;;;;;;5026253;28;20489;-66
2023/10/19 03:47:20;;;;;;;38.33;27.43;;;9.50;33.80;;;;;;5022532;28;20463;-67
2023/10/19 03:49:48;;;;;;;40.60;28.03;;;9.50;33.90;;;;;;5024839;28;21377;-66
2023/10/19 03:52:21;;;;;;;39.63;28.43;;;9.50;33.90;;;;;;5024589;28;20463;-67
2023/10/19 03:54:50;;;;;;;36.87;27.07;;;9.50;33.90;;;;;;5024919;28;20483;-66
2023/10/19 03:57:22;;;;;;;44.07;27.13;;;9.50;34.00;;;;;;5024609;28;20954;-66
2023/10/19 03:59:52;;;;;;;39.20;28.47;;;9.40;34.00;;;;;;5028790;28;20975;-66
2023/10/19 04:02:20;;;;;;;44.50;27.87;;;9.40;34.00;;;;;;5026265;28;20479;-66
2023/10/19 04:04:48;;;;;;;40.23;27.50;;;9.40;34.20;;;;;;5023378;28;21056;-67
2023/10/19 04:07:20;;;;;;;35.57;26.40;;;9.40;34.30;;;;;;5025743;28;20943;-66
2023/10/19 04:09:59;;;;;;;40.83;26.57;;;9.40;34.20;;;;;;5027694;28;20473;-68
2023/10/19 04:12:28;;;;;;;42.07;30.67;;;9.40;34.20;;;;;;5026376;28;20460;-67
2023/10/19 04:14:55;;;;;;;39.10;28.23;;;9.50;34.40;;;;;;5025817;28;20507;-67
2023/10/19 04:17:23;;;;;;;36.23;26.33;;;9.50;34.40;;;;;;5027085;28;20459;-68
2023/10/19 04:19:51;;;;;;;38.50;25.93;;;9.50;34.30;;;;;;5027905;28;20466;-66
2023/10/19 04:22:22;;;;;;;37.43;28.40;;;9.60;34.20;;;;;;5022483;28;20525;-68
2023/10/19 04:24:51;;;;;;;38.83;28.73;;;9.60;34.50;;;;;;5028282;28;20483;-68
2023/10/19 04:27:21;;;;;;;35.70;26.63;;;9.60;34.70;;;;;;5028411;28;20467;-68
2023/10/19 04:29:49;;;;;;;35.93;27.53;;;9.70;34.50;;;;;;5026186;28;20562;-67
2023/10/19 04:32:23;;;;;;;35.50;26.73;;;9.70;34.70;;;;;;5028493;28;20471;-67
2023/10/19 04:34:49;;;;;;;37.60;29.70;;;9.80;34.50;;;;;;5031090;28;20520;-67
2023/10/19 04:37:18;;;;;;;36.37;27.83;;;9.80;34.50;;;;;;5026315;28;20463;-67
2023/10/19 04:39:45;;;;;;;35.20;26.50;;;9.70;34.60;;;;;;5029946;28;20467;-67
2023/10/19 04:42:14;;;;;;;32.90;24.83;;;9.80;34.30;;;;;;5031939;28;20482;-67
2023/10/19 04:44:41;;;;;;;34.57;25.67;;;9.80;34.30;;;;;;5030280;28;20482;-67
2023/10/19 04:47:07;;;;;;;32.13;25.23;;;9.80;34.60;;;;;;5031959;28;20467;-67
2023/10/19 04:49:34;;;;;;;38.50;28.27;;;9.80;34.60;;;;;;5036028;28;20461;-67
2023/10/19 04:52:03;;;;;;;36.97;27.67;;;9.80;34.40;;;;;;5030696;28;20958;-67
2023/10/19 04:54:29;;;;;;;32.30;24.57;;;9.90;34.30;;;;;;5032377;28;20474;-67
2023/10/19 04:56:56;;;;;;;31.90;23.50;;;9.90;34.40;;;;;;5028625;28;20977;-67
2023/10/19 04:59:24;;;;;;;31.17;23.20;;;10.00;34.40;;;;;;5028221;28;20470;-67
2023/10/19 05:01:51;;;;;;;28.97;23.17;;;10.00;34.50;;;;;;5026647;28;20470;-67
2023/10/19 05:04:18;;;;;;;29.53;25.03;;;10.00;34.70;;;;;;5029531;28;21009;-67
2023/10/19 05:06:45;;;;;;;33.60;25.73;;;10.00;34.90;;;;;;5029900;28;20458;-67
2023/10/19 05:09:12;;;;;;;31.10;24.00;;;10.00;35.00;;;;;;5032037;28;20459;-67
2023/10/19 05:11:39;;;;;;;34.03;25.60;;;10.00;35.00;;;;;;5029495;28;20490;-67
2023/10/19 05:14:06;;;;;;;30.90;25.00;;;10.00;35.00;;;;;;5031431;28;20624;-67
2023/10/19 05:16:34;;;;;;;31.93;24.20;;;10.10;35.10;;;;;;5029240;28;20467;-67
2023/10/19 05:19:01;;;;;;;31.20;23.90;;;10.10;35.10;;;;;;5031947;28;20487;-67
2023/10/19 05:21:30;;;;;;;32.70;24.70;;;10.10;35.10;;;;;;5031740;28;20513;-67
2023/10/19 05:23:56;;;;;;;32.00;23.70;;;10.20;35.20;;;;;;5029908;28;20486;-67
2023/10/19 05:26:23;;;;;;;31.00;22.53;;;10.10;35.10;;;;;;5028189;28;20463;-68
2023/10/19 05:28:50;;;;;;;32.43;24.63;;;10.20;35.20;;;;;;5031002;28;20548;-68
2023/10/19 05:31:17;;;;;;;30.70;23.27;;;10.20;35.10;;;;;;5027597;28;20482;-68
2023/10/19 05:33:48;;;;;;;33.30;23.80;;;10.20;35.20;;;;;;5030604;28;20455;-69
2023/10/19 05:36:15;;;;;;;30.97;22.90;;;10.20;35.20;;;;;;5032744;28;21175;-68
2023/10/19 05:38:41;;;;;;;28.03;21.53;;;10.20;35.20;;;;;;5030365;28;20458;-68
2023/10/19 05:41:08;;;;;;;28.40;23.03;;;10.20;35.40;;;;;;5031963;28;20836;-68
2023/10/19 05:43:35;;;;;;;27.97;21.20;;;10.20;35.40;;;;;;5030099;28;20549;-68
2023/10/19 05:46:02;;;;;;;34.43;25.80;;;10.20;35.50;;;;;;5031356;28;20502;-67
2023/10/19 05:48:28;;;;;;;30.70;23.67;;;10.20;35.40;;;;;;5032095;28;20475;-68
2023/10/19 05:50:57;;;;;;;29.47;23.33;;;10.30;35.60;;;;;;5030664;28;20455;-66
2023/10/19 05:53:23;;;;;;;30.10;23.60;;;10.30;35.50;;;;;;5030376;28;20451;-67
2023/10/19 05:55:50;;;;;;;27.47;21.37;;;10.30;35.50;;;;;;5031065;28;20482;-68
2023/10/19 05:58:17;;;;;;;31.27;22.87;;;10.30;35.50;;;;;;5030914;28;20455;-66
2023/10/19 06:00:43;;;;;;;28.17;23.23;;;10.30;35.50;;;;;;5029968;28;20463;-68
2023/10/19 06:03:10;;;;;;;33.20;23.77;;;10.40;35.30;;;;;;5030213;28;20479;-67
2023/10/19 06:05:37;;;;;;;33.63;25.87;;;10.40;35.50;;;;;;5031082;28;20506;-66
2023/10/19 06:08:05;;;;;;;33.73;24.50;;;10.40;35.30;;;;;;5030116;28;20463;-66
2023/10/19 06:10:32;;;;;;;31.07;23.00;;;10.40;35.20;;;;;;5024862;28;20489;-66
2023/10/19 06:12:59;;;;;;;29.57;22.40;;;10.50;35.10;;;;;;5031992;28;20848;-67
2023/10/19 06:15:28;;;;;;;29.83;24.60;;;10.50;35.00;;;;;;5031370;28;20481;-67
2023/10/19 06:17:55;;;;;;;28.23;22.37;;;10.60;35.00;;;;;;5030503;28;20892;-66
2023/10/19 06:20:24;;;;;;;27.40;21.07;;;10.60;34.70;;;;;;5030401;28;20462;-66
2023/10/19 06:22:51;;;;;;;27.53;22.30;;;10.60;34.80;;;;;;5030203;28;20490;-67
2023/10/19 06:25:21;;;;;;;29.53;23.97;;;10.70;34.90;;;;;;5029222;28;20475;-66
2023/10/19 06:27:48;;;;;;;27.13;22.00;;;10.70;35.50;;;;;;5029299;28;20487;-66
2023/10/19 06:30:18;;;;;;;27.93;21.30;;;10.80;34.90;;;;;;5029277;28;20455;-66
2023/10/19 06:32:47;;;;;;;30.87;22.90;;;10.80;34.70;;;;;;5030322;28;20483;-66
2023/10/19 06:35:14;;;;;;;27.80;22.70;;;10.80;34.60;;;;;;5029485;28;21005;-66
2023/10/19 06:37:41;;;;;;;28.23;22.37;;;10.90;34.60;;;;;;5025903;28;20456;-66
2023/10/19 06:40:11;;;;;;;30.20;22.60;;;10.90;34.50;;;;;;5032992;28;20486;-66
2023/10/19 06:42:39;;;;;;;27.23;21.10;;;11.00;33.80;;;;;;5031794;28;20520;-66
2023/10/19 06:45:08;;;;;;;25.97;20.93;;;11.10;33.90;;;;;;5029390;28;20493;-66
2023/10/19 06:47:37;;;;;;;26.10;20.93;;;11.10;33.70;;;;;;5031193;28;20455;-66
2023/10/19 06:50:07;;;;;;;27.03;21.40;;;11.20;33.80;;;;;;5031143;28;20966;-66
2023/10/19 06:52:35;;;;;;;24.67;19.83;;;11.20;33.70;;;;;;5028426;28;20549;-66
2023/10/19 06:55:02;;;;;;;28.50;21.87;;;11.30;34.20;;;;;;5029358;28;20470;-66
2023/10/19 06:57:29;;;;;;;24.67;20.93;;;11.40;33.50;;;;;;5032784;28;21224;-66
2023/10/19 06:59:57;;;;;;;30.87;21.70;;;11.40;33.30;;;;;;5021897;23;20488;-71
2023/10/19 07:02:24;;;;;;;27.53;21.27;;;11.40;33.20;;;;;;5005543;28;20480;-70
2023/10/19 07:04:51;;;;;;;25.70;20.37;;;11.50;33.10;;;;;;5007567;28;20475;-70
2023/10/19 07:07:18;;;;;;;28.40;21.17;;;11.50;32.90;;;;;;5005893;28;20490;-70
2023/10/19 07:09:45;;;;;;;26.00;19.40;;;11.60;32.90;;;;;;5008077;28;20464;-70
2023/10/19 07:12:12;;;;;;;26.43;20.90;;;11.70;32.60;;;;;;5007672;28;20448;-71
2023/10/19 07:14:40;;;;;;;24.03;19.90;;;11.80;32.50;;;;;;5007808;28;20817;-71
2023/10/19 07:17:08;;;;;;;24.93;20.80;;;11.90;32.50;;;;;;5008686;28;20456;-71
2023/10/19 07:19:36;;;;;;;23.77;17.87;;;12.10;32.30;;;;;;5006537;28;20462;-70
2023/10/19 07:22:04;;;;;;;23.43;19.07;;;12.20;32.20;;;;;;5008644;28;21215;-70
2023/10/19 07:26:05;;;;;;;24.23;19.60;;;12.30;31.00;;;;;;5083756;27;20572;-66
2023/10/19 07:28:33;;;;;;;23.90;18.87;;;12.40;31.80;;;;;;5054332;28;20470;-66
2023/10/19 07:31:00;;;;;;;20.23;17.87;;;12.40;31.80;;;;;;5039100;28;20468;-66
2023/10/19 07:33:27;;;;;;;22.90;19.13;;;12.40;31.80;;;;;;4995676;28;20456;-66
2023/10/19 07:35:55;;;;;;;22.20;18.10;;;12.40;31.90;;;;;;5003351;28;20472;-66
2023/10/19 07:38:23;;;;;;;21.00;17.63;;;12.40;31.90;;;;;;4996972;28;20480;-66
2023/10/19 07:40:52;;;;;;;22.97;19.17;;;12.40;32.20;;;;;;4996430;28;20470;-66
2023/10/19 07:43:21;;;;;;;24.90;19.47;;;12.30;32.50;;;;;;4997171;28;20465;-66
2023/10/19 07:45:48;;;;;;;22.77;18.67;;;12.30;32.50;;;;;;4994996;28;20982;-66
2023/10/19 07:48:16;;;;;;;25.67;19.03;;;12.30;32.40;;;;;;4993935;28;20483;-66
2023/10/19 07:50:43;;;;;;;24.00;18.70;;;12.30;32.50;;;;;;5000667;28;20460;-66
2023/10/19 07:53:11;;;;;;;23.97;19.17;;;12.30;32.50;;;;;;4995557;28;20937;-66
2023/10/19 07:55:38;;;;;;;23.53;19.80;;;12.40;32.30;;;;;;4996736;28;20460;-66
2023/10/19 07:58:06;;;;;;;23.47;20.57;;;12.40;32.00;;;;;;5002170;28;20891;-66
2023/10/19 08:00:34;;;;;;;25.90;20.90;;;12.50;32.20;;;;;;5004046;28;20464;-66
2023/10/19 08:03:02;;;;;;;26.80;20.20;;;12.50;32.10;;;;;;4987529;28;20472;-66
2023/10/19 08:05:29;;;;;;;22.73;19.17;;;12.50;32.00;;;;;;4998623;28;20569;-66
2023/10/19 08:07:58;;;;;;;25.93;19.30;;;12.50;32.10;;;;;;4992813;28;20512;-66
2023/10/19 08:10:26;;;;;;;24.60;18.60;;;12.50;32.00;;;;;;4994179;28;20457;-66
2023/10/19 08:12:55;;;;;;;28.40;21.87;;;12.50;32.10;;;;;;4994651;28;20465;-66
2023/10/19 08:15:22;;;;;;;23.70;19.63;;;12.50;32.20;;;;;;4999507;28;20457;-66
2023/10/19 08:17:53;;;;;;;25.33;21.33;;;12.50;32.10;;;;;;4994724;28;20480;-66
2023/10/19 08:20:23;;;;;;;25.47;19.77;;;12.50;32.00;;;;;;4993802;28;20452;-66
2023/10/19 08:22:51;;;;;;;25.93;20.27;;;12.50;31.90;;;;;;4991981;28;20997;-66
2023/10/19 08:25:18;;;;;;;23.50;19.87;;;12.50;32.00;;;;;;5000419;28;21006;-66
2023/10/19 08:27:48;;;;;;;27.43;20.30;;;12.50;32.10;;;;;;5003747;28;20480;-66
2023/10/19 08:30:17;;;;;;;25.23;21.60;;;12.50;32.30;;;;;;4995704;28;20467;-66
2023/10/19 08:32:47;;;;;;;24.53;21.27;;;12.50;32.20;;;;;;4996133;28;20535;-66
2023/10/19 08:35:18;;;;;;;25.90;20.40;;;12.60;32.00;;;;;;4999083;28;20492;-66
2023/10/19 08:37:46;;;;;;;26.00;20.87;;;12.60;32.40;;;;;;4981926;28;20480;-66
2023/10/19 08:40:14;;;;;;;25.03;19.03;;;12.60;32.50;;;;;;4990136;28;20538;-66
2023/10/19 08:42:41;;;;;;;24.17;19.80;;;12.70;33.00;;;;;;4989514;28;20817;-66
2023/10/19 08:45:09;;;;;;;24.90;19.10;;;12.70;32.90;;;;;;4984657;28;20511;-66
2023/10/19 08:47:37;;;;;;;27.87;21.23;;;12.70;33.30;;;;;;4985632;28;20504;-66
2023/10/19 08:50:05;;;;;;;29.97;21.33;;;12.70;33.30;;;;;;4976754;28;20836;-66
2023/10/19 08:52:34;;;;;;;24.80;21.17;;;12.70;33.60;;;;;;4976453;28;21178;-66
2023/10/19 08:55:01;;;;;;;27.17;21.60;;;12.80;33.50;;;;;;4991956;28;20492;-66
2023/10/19 08:57:29;;;;;;;28.57;22.23;;;12.90;33.50;;;;;;4987919;28;20610;-66
2023/10/19 08:59:58;;;;;;;24.73;20.43;;;13.00;33.30;;;;;;4983778;28;20457;-66
2023/10/19 09:02:26;;;;;;;25.33;20.67;;;13.10;33.40;;;;;;4987330;28;20531;-66
2023/10/19 09:04:53;;;;;;;24.67;19.97;;;13.30;33.10;;;;;;4987111;28;20909;-66
2023/10/19 09:07:20;;;;;;;26.40;19.57;;;13.40;32.70;;;;;;4975287;28;20567;-66
2023/10/19 09:09:49;;;;;;;22.30;18.67;;;13.50;32.40;;;;;;4979406;28;20533;-66
2023/10/19 09:12:16;;;;;;;21.63;18.60;;;13.60;32.20;;;;;;4981920;28;20460;-66
2023/10/19 09:14:45;;;;;;;25.10;19.40;;;13.60;32.20;;;;;;4992774;28;20492;-66
2023/10/19 09:17:13;;;;;;;21.80;18.80;;;13.70;31.90;;;;;;4980293;28;20487;-66
2023/10/19 09:19:43;;;;;;;25.20;18.87;;;13.70;31.90;;;;;;4982359;28;20537;-66
2023/10/19 09:22:18;;;;;;;23.60;18.40;;;13.70;31.90;;;;;;4973954;28;20488;-66
2023/10/19 09:24:46;;;;;;;24.70;19.13;;;13.80;31.80;;;;;;4984315;28;20479;-66
2023/10/19 09:27:17;;;;;;;24.67;19.97;;;13.80;32.10;;;;;;4979276;28;20481;-66
2023/10/19 09:29:45;;;;;;;25.67;19.67;;;13.70;32.30;;;;;;4971837;28;21011;-66
2023/10/19 09:32:13;;;;;;;24.17;20.03;;;13.70;32.60;;;;;;4976293;28;20478;-66
2023/10/19 09:34:43;;;;;;;22.23;18.77;;;13.70;32.90;;;;;;4994022;28;20833;-66
2023/10/19 09:37:11;;;;;;;23.70;18.70;;;13.70;33.60;;;;;;4979572;28;20493;-66
2023/10/19 09:39:38;;;;;;;26.03;20.33;;;13.70;33.30;;;;;;4988092;28;20982;-66
2023/10/19 09:42:10;;;;;;;29.33;20.20;;;13.70;33.20;;;;;;4983086;28;20507;-66
2023/10/19 09:44:42;;;;;;;26.80;20.37;;;13.70;33.20;;;;;;4976056;28;20561;-66
2023/10/19 09:47:12;;;;;;;25.50;21.00;;;13.70;33.20;;;;;;4985204;28;20984;-66
2023/10/19 09:49:42;;;;;;;29.00;23.90;;;13.70;33.20;;;;;;4980322;28;20469;-66
2023/10/19 09:52:10;;;;;;;25.43;19.97;;;13.70;33.00;;;;;;4973901;28;21128;-66
2023/10/19 09:54:51;;;;;;;24.27;20.60;;;13.80;33.40;;;;;;4978830;28;20528;-66
2023/10/19 09:57:24;;;;;;;31.60;20.50;;;13.80;33.80;;;;;;4986206;28;20489;-66
2023/10/19 09:59:58;;;;;;;24.40;21.00;;;13.80;34.00;;;;;;4982011;28;20460;-66
2023/10/19 10:02:28;;;;;;;29.20;20.63;;;13.80;34.50;;;;;;4976779;28;20493;-66
2023/10/19 10:04:57;;;;;;;30.27;22.30;;;13.80;34.50;;;;;;4983556;28;20523;-66
2023/10/19 10:07:25;;;;;;;23.80;19.77;;;13.70;34.90;;;;;;4986941;28;20572;-66
2023/10/19 10:09:52;;;;;;;25.40;20.13;;;13.80;34.70;;;;;;4990861;28;21114;-66
2023/10/19 10:12:21;;;;;;;29.97;22.47;;;13.80;34.90;;;;;;4988578;28;20567;-66
2023/10/19 10:15:03;;;;;;;25.23;21.37;;;13.90;34.70;;;;;;4989606;28;20525;-66
2023/10/19 10:17:33;;;;;;;23.80;19.60;;;14.00;34.80;;;;;;4972597;28;20500;-66
2023/10/19 10:20:34;;;;;;;22.87;20.40;;;14.10;34.40;;;;;;4990581;28;20543;-67
2023/10/19 10:23:24;;;;;;;24.50;20.37;;;14.20;34.40;;;;;;4981076;28;20648;-66
2023/10/19 10:25:53;;;;;;;28.60;21.40;;;14.20;33.80;;;;;;4984058;28;20495;-66
2023/10/19 10:28:23;;;;;;;27.90;23.00;;;14.30;33.50;;;;;;4979245;28;20490;-66
2023/10/19 10:31:13;;;;;;;27.90;21.33;;;14.40;33.40;;;;;;4985809;28;20476;-66
2023/10/19 10:33:41;;;;;;;27.73;22.00;;;14.30;33.70;;;;;;4980418;28;20516;-67
2023/10/19 10:36:08;;;;;;;33.03;21.97;;;14.40;33.10;;;;;;4990712;28;20536;-66
2023/10/19 10:38:36;;;;;;;27.77;21.20;;;14.40;32.90;;;;;;4992841;28;20519;-66
2023/10/19 10:41:03;;;;;;;25.13;21.73;;;14.50;33.00;;;;;;4977071;28;20463;-66
2023/10/19 10:43:30;;;;;;;22.80;20.37;;;14.50;33.60;;;;;;4987527;28;20467;-66
2023/10/19 10:46:05;;;;;;;26.23;20.20;;;14.60;33.00;;;;;;4976118;28;21228;-66
2023/10/19 10:48:36;;;;;;;28.43;22.07;;;14.70;32.80;;;;;;4979244;28;20469;-66
2023/10/19 10:51:02;;;;;;;29.77;20.77;;;14.70;32.70;;;;;;4984896;28;20453;-66
2023/10/19 10:53:29;;;;;;;25.20;20.60;;;14.80;32.50;;;;;;4982389;28;20455;-66
2023/10/19 10:56:01;;;;;;;27.17;20.90;;;14.90;32.10;;;;;;4979660;28;20448;-67
2023/10/19 10:58:28;;;;;;;24.57;21.10;;;15.00;32.10;;;;;;4983416;28;20551;-66
2023/10/19 11:00:56;;;;;;;25.20;21.87;;;15.10;32.40;;;;;;4975891;28;20543;-66
2023/10/19 11:03:24;;;;;;;26.80;22.47;;;15.30;32.10;;;;;;4970431;28;20453;-66
2023/10/19 11:05:52;;;;;;;24.80;21.40;;;15.50;32.40;;;;;;4978591;28;20500;-66
2023/10/19 11:08:20;;;;;;;27.47;23.20;;;15.60;32.30;;;;;;4986970;28;20481;-67
2023/10/19 11:10:48;;;;;;;23.47;20.00;;;15.70;31.60;;;;;;4985408;28;20463;-66
2023/10/19 11:13:16;;;;;;;23.90;20.43;;;15.80;31.40;;;;;;4973038;28;20468;-66
2023/10/19 11:15:50;;;;;;;24.37;19.80;;;15.80;30.70;;;;;;4972363;28;20529;-66
2023/10/19 11:18:30;;;;;;;25.50;21.10;;;15.90;30.70;;;;;;4976226;28;20527;-66
2023/10/19 11:21:00;;;;;;;23.03;20.00;;;15.90;31.00;;;;;;4985967;28;20520;-67
2023/10/19 11:23:39;;;;;;;23.50;20.40;;;16.00;30.50;;;;;;4975503;28;20528;-66
2023/10/19 11:26:06;;;;;;;31.57;21.83;;;16.00;30.70;;;;;;4981259;28;20995;-67
2023/10/19 11:28:34;;;;;;;27.23;22.00;;;16.00;30.90;;;;;;4983513;28;20504;-67
2023/10/19 11:31:15;;;;;;;23.80;20.40;;;16.10;30.90;;;;;;4977514;28;20473;-67
2023/10/19 11:33:43;;;;;;;22.30;19.90;;;16.10;31.00;;;;;;4976521;28;20516;-67
2023/10/19 11:36:12;;;;;;;27.30;20.10;;;16.00;30.60;;;;;;4974621;28;20452;-68
2023/10/19 11:38:43;;;;;;;21.20;18.83;;;16.00;30.00;;;;;;4973159;28;20488;-67
2023/10/19 11:41:10;;;;;;;22.90;20.00;;;16.00;30.30;;;;;;4977231;28;20464;-62
2023/10/19 11:43:37;;;;;;;23.87;18.50;;;16.00;30.40;;;;;;4981174;28;20456;-64
2023/10/19 11:46:07;;;;;;;25.70;18.37;;;16.00;30.50;;;;;;4989089;28;20480;-62
2023/10/19 11:48:36;;;;;;;27.27;20.60;;;16.20;30.50;;;;;;4999835;28;20480;-63
2023/10/19 11:51:04;;;;;;;22.90;19.27;;;16.20;29.90;;;;;;5008918;28;20466;-61
2023/10/19 11:53:34;;;;;;;22.53;18.73;;;16.30;29.40;;;;;;4998160;28;20452;-62
2023/10/19 11:56:03;;;;;;;22.37;18.13;;;16.40;29.40;;;;;;4983229;28;20450;-62
2023/10/19 11:58:32;;;;;;;21.10;17.87;;;16.40;29.20;;;;;;4968995;28;20567;-63
2023/10/19 12:00:59;;;;;;;33.33;24.20;;;16.50;29.30;;;;;;4969104;28;20477;-63
2023/10/19 12:03:26;;;;;;;23.20;17.13;;;16.60;29.60;;;;;;5005064;28;20459;-63
2023/10/19 12:05:55;;;;;;;21.63;16.87;;;16.70;29.20;;;;;;4984569;28;20473;-67
2023/10/19 12:08:22;;;;;;;21.00;17.90;;;16.90;28.90;;;;;;4986188;28;20476;-66
2023/10/19 12:10:50;;;;;;;19.00;17.00;;;17.00;28.80;;;;;;4972870;28;20889;-67
2023/10/19 12:13:17;;;;;;;21.70;17.60;;;17.20;28.60;;;;;;4977899;28;20508;-67
2023/10/19 12:15:51;;;;;;;21.60;18.83;;;17.40;28.60;;;;;;4981067;28;21066;-67
2023/10/19 12:18:19;;;;;;;22.43;18.53;;;17.60;28.60;;;;;;4980579;28;20585;-67
2023/10/19 12:20:46;;;;;;;22.20;16.60;;;18.10;28.70;;;;;;4981262;28;20456;-67
2023/10/19 12:23:13;;;;;;;18.00;15.87;;;18.80;28.80;;;;;;4975937;28;20449;-67
2023/10/19 12:25:42;;;;;;;22.20;16.80;;;19.00;26.60;;;;;;4984888;28;20489;-67
2023/10/19 12:28:13;;;;;;;17.40;15.50;;;19.10;24.80;;;;;;4981151;28;21016;-67
2023/10/19 12:30:44;;;;;;;18.87;16.00;;;19.30;24.60;;;;;;4978049;28;20484;-67
2023/10/19 12:33:14;;;;;;;16.37;14.67;;;19.50;24.40;;;;;;4982847;28;20551;-67
2023/10/19 12:35:51;;;;;;;18.87;14.70;;;19.60;23.00;;;;;;4975051;28;20453;-67
2023/10/19 12:38:19;;;;;;;16.57;14.77;;;19.50;22.90;;;;;;4978421;28;21070;-67
2023/10/19 12:40:47;;;;;;;17.50;15.80;;;19.50;23.00;;;;;;4984905;28;20487;-67